sensor_id;sensor_type;location;lat;lon;timestamp;P1;durP1;ratioP1;P2;durP2;ratioP2
74519;SDS011;63002;48.134;-1.948;2023-08-06T05:01:44;2.03;;;0.40;;
74519;SDS011;63002;48.134;-1.948;2023-08-06T05:04:10;1.67;;;0.43;;
74519;SDS011;63002;48.134;-1.948;2023-08-06T05:06:36;2.30;;;0.40;;
74519;SDS011;63002;48.134;-1.948;2023-08-06T05:09:03;1.73;;;0.40;;
74519;SDS011;63002;48.134;-1.948;2023-08-06T05:11:30;1.17;;;0.30;;
74519;SDS011;63002;48.134;-1.948;2023-08-06T05:13:56;1.98;;;0.40;;
74519;SDS011;63002;48.134;-1.948;2023-08-06T05:16:21;1.77;;;0.40;;
74519;SDS011;63002;48.134;-1.948;2023-08-06T05:18:47;1.35;;;0.38;;
74519;SDS011;63002;48.134;-1.948;2023-08-06T05:21:13;1.70;;;0.50;;
74519;SDS011;63002;48.134;-1.948;2023-08-06T05:23:39;2.00;;;0.40;;
74519;SDS011;63002;48.134;-1.948;2023-08-06T05:26:04;1.98;;;0.43;;
74519;SDS011;63002;48.134;-1.948;2023-08-06T05:28:30;1.60;;;0.40;;
74519;SDS011;63002;48.134;-1.948;2023-08-06T05:30:56;2.30;;;0.50;;
74519;SDS011;63002;48.134;-1.948;2023-08-06T05:33:22;1.37;;;0.40;;
74519;SDS011;63002;48.134;-1.948;2023-08-06T05:35:49;2.13;;;0.55;;
74519;SDS011;63002;48.134;-1.948;2023-08-06T05:38:16;1.42;;;0.38;;
74519;SDS011;63002;48.134;-1.948;2023-08-06T05:40:42;2.10;;;0.40;;
74519;SDS011;63002;48.134;-1.948;2023-08-06T05:43:08;1.83;;;0.60;;
74519;SDS011;63002;48.134;-1.948;2023-08-06T05:45:34;1.77;;;0.40;;
74519;SDS011;63002;48.134;-1.948;2023-08-06T05:47:59;2.20;;;0.47;;
74519;SDS011;63002;48.134;-1.948;2023-08-06T05:50:25;3.00;;;0.50;;
74519;SDS011;63002;48.134;-1.948;2023-08-06T05:52:51;2.67;;;0.50;;
74519;SDS011;63002;48.134;-1.948;2023-08-06T05:55:17;3.17;;;0.50;;
74519;SDS011;63002;48.134;-1.948;2023-08-06T05:57:43;1.73;;;0.40;;
74519;SDS011;63002;48.134;-1.948;2023-08-06T06:00:09;3.40;;;0.40;;
74519;SDS011;63002;48.134;-1.948;2023-08-06T06:02:35;2.20;;;0.43;;
74519;SDS011;63002;48.134;-1.948;2023-08-06T06:05:01;2.15;;;0.40;;
74519;SDS011;63002;48.134;-1.948;2023-08-06T06:07:27;2.17;;;0.53;;
74519;SDS011;63002;48.134;-1.948;2023-08-06T06:09:53;2.53;;;0.40;;
74519;SDS011;63002;48.134;-1.948;2023-08-06T06:12:18;1.65;;;0.38;;
74519;SDS011;63002;48.134;-1.948;2023-08-06T06:14:45;2.13;;;0.47;;
74519;SDS011;63002;48.134;-1.948;2023-08-06T06:17:11;1.20;;;0.38;;
74519;SDS011;63002;48.134;-1.948;2023-08-06T06:19:36;2.03;;;0.50;;
74519;SDS011;63002;48.134;-1.948;2023-08-06T06:22:02;1.20;;;0.40;;
74519;SDS011;63002;48.134;-1.948;2023-08-06T06:24:28;1.80;;;0.60;;
74519;SDS011;63002;48.134;-1.948;2023-08-06T06:26:56;2.50;;;0.50;;
74519;SDS011;63002;48.134;-1.948;2023-08-06T06:29:22;1.33;;;0.40;;
74519;SDS011;63002;48.134;-1.948;2023-08-06T06:31:48;1.73;;;0.40;;
74519;SDS011;63002;48.134;-1.948;2023-08-06T06:34:14;5.68;;;0.73;;
74519;SDS011;63002;48.134;-1.948;2023-08-06T06:36:40;6.22;;;0.70;;
74519;SDS011;63002;48.134;-1.948;2023-08-06T06:39:05;4.27;;;0.70;;
74519;SDS011;63002;48.134;-1.948;2023-08-06T06:41:31;3.13;;;0.60;;
74519;SDS011;63002;48.134;-1.948;2023-08-06T06:43:59;4.45;;;0.50;;
74519;SDS011;63002;48.134;-1.948;2023-08-06T06:46:27;3.28;;;0.52;;
74519;SDS011;63002;48.134;-1.948;2023-08-06T06:48:53;1.50;;;0.40;;
74519;SDS011;63002;48.134;-1.948;2023-08-06T06:51:18;3.38;;;0.50;;
74519;SDS011;63002;48.134;-1.948;2023-08-06T06:53:44;4.97;;;0.60;;
74519;SDS011;63002;48.134;-1.948;2023-08-06T06:56:10;5.83;;;0.70;;
74519;SDS011;63002;48.134;-1.948;2023-08-06T06:58:36;3.42;;;0.50;;
74519;SDS011;63002;48.134;-1.948;2023-08-06T07:01:03;2.40;;;0.47;;
74519;SDS011;63002;48.134;-1.948;2023-08-06T07:03:29;2.70;;;0.45;;
74519;SDS011;63002;48.134;-1.948;2023-08-06T07:05:58;3.23;;;0.40;;
74519;SDS011;63002;48.134;-1.948;2023-08-06T07:08:25;2.75;;;0.50;;
74519;SDS011;63002;48.134;-1.948;2023-08-06T07:10:59;1.95;;;0.50;;
74519;SDS011;63002;48.134;-1.948;2023-08-06T07:13:27;2.53;;;0.47;;
74519;SDS011;63002;48.134;-1.948;2023-08-06T07:15:54;3.65;;;0.50;;
74519;SDS011;63002;48.134;-1.948;2023-08-06T07:18:20;3.28;;;0.63;;
74519;SDS011;63002;48.134;-1.948;2023-08-06T07:20:49;2.70;;;0.50;;
74519;SDS011;63002;48.134;-1.948;2023-08-06T07:23:16;2.60;;;0.50;;
74519;SDS011;63002;48.134;-1.948;2023-08-06T07:25:42;3.50;;;0.77;;
74519;SDS011;63002;48.134;-1.948;2023-08-06T07:28:08;1.83;;;0.40;;
74519;SDS011;63002;48.134;-1.948;2023-08-06T07:30:38;4.18;;;0.88;;
74519;SDS011;63002;48.134;-1.948;2023-08-06T07:33:04;2.53;;;0.68;;
74519;SDS011;63002;48.134;-1.948;2023-08-06T07:35:31;2.28;;;0.60;;
74519;SDS011;63002;48.134;-1.948;2023-08-06T07:37:57;3.40;;;0.85;;
74519;SDS011;63002;48.134;-1.948;2023-08-06T07:40:23;3.20;;;0.50;;
74519;SDS011;63002;48.134;-1.948;2023-08-06T07:42:49;3.38;;;0.50;;
74519;SDS011;63002;48.134;-1.948;2023-08-06T07:45:15;2.85;;;0.50;;
74519;SDS011;63002;48.134;-1.948;2023-08-06T07:47:40;4.83;;;0.60;;
74519;SDS011;63002;48.134;-1.948;2023-08-06T07:50:07;3.47;;;0.47;;
74519;SDS011;63002;48.134;-1.948;2023-08-06T07:52:34;2.63;;;0.60;;
74519;SDS011;63002;48.134;-1.948;2023-08-06T07:55:00;2.10;;;0.45;;
74519;SDS011;63002;48.134;-1.948;2023-08-06T07:57:30;1.23;;;0.40;;
74519;SDS011;63002;48.134;-1.948;2023-08-06T07:59:58;1.93;;;0.40;;
74519;SDS011;63002;48.134;-1.948;2023-08-06T08:02:24;2.72;;;0.95;;
74519;SDS011;63002;48.134;-1.948;2023-08-06T08:04:51;2.97;;;0.40;;
74519;SDS011;63002;48.134;-1.948;2023-08-06T08:07:17;2.70;;;0.53;;
74519;SDS011;63002;48.134;-1.948;2023-08-06T08:09:43;3.30;;;0.60;;
74519;SDS011;63002;48.134;-1.948;2023-08-06T08:12:09;3.33;;;0.50;;
74519;SDS011;63002;48.134;-1.948;2023-08-06T08:14:35;11.30;;;0.60;;
74519;SDS011;63002;48.134;-1.948;2023-08-06T08:17:02;2.72;;;0.60;;
74519;SDS011;63002;48.134;-1.948;2023-08-06T08:19:29;3.15;;;0.60;;
74519;SDS011;63002;48.134;-1.948;2023-08-06T08:21:55;3.77;;;0.60;;
74519;SDS011;63002;48.134;-1.948;2023-08-06T08:24:21;6.93;;;0.70;;
74519;SDS011;63002;48.134;-1.948;2023-08-06T08:26:52;6.53;;;0.68;;
74519;SDS011;63002;48.134;-1.948;2023-08-06T08:29:19;4.93;;;0.60;;
74519;SDS011;63002;48.134;-1.948;2023-08-06T08:31:46;7.53;;;0.77;;
74519;SDS011;63002;48.134;-1.948;2023-08-06T08:34:14;5.30;;;1.00;;
74519;SDS011;63002;48.134;-1.948;2023-08-06T08:36:40;5.43;;;0.70;;
74519;SDS011;63002;48.134;-1.948;2023-08-06T08:39:06;6.82;;;1.08;;
74519;SDS011;63002;48.134;-1.948;2023-08-06T08:41:32;12.87;;;0.97;;
74519;SDS011;63002;48.134;-1.948;2023-08-06T08:43:59;10.63;;;1.15;;
74519;SDS011;63002;48.134;-1.948;2023-08-06T08:46:29;12.70;;;1.38;;
74519;SDS011;63002;48.134;-1.948;2023-08-06T08:48:58;9.18;;;1.10;;
74519;SDS011;63002;48.134;-1.948;2023-08-06T08:51:27;7.57;;;1.35;;
74519;SDS011;63002;48.134;-1.948;2023-08-06T08:53:56;5.28;;;0.80;;
74519;SDS011;63002;48.134;-1.948;2023-08-06T08:56:23;7.95;;;1.30;;
74519;SDS011;63002;48.134;-1.948;2023-08-06T08:58:50;7.05;;;1.40;;
74519;SDS011;63002;48.134;-1.948;2023-08-06T09:01:20;9.38;;;1.50;;
74519;SDS011;63002;48.134;-1.948;2023-08-06T09:03:49;8.57;;;1.70;;
74519;SDS011;63002;48.134;-1.948;2023-08-06T09:06:18;7.63;;;1.20;;
74519;SDS011;63002;48.134;-1.948;2023-08-06T09:08:50;9.35;;;1.02;;
74519;SDS011;63002;48.134;-1.948;2023-08-06T09:11:22;7.22;;;1.20;;
74519;SDS011;63002;48.134;-1.948;2023-08-06T09:13:51;8.90;;;1.38;;
74519;SDS011;63002;48.134;-1.948;2023-08-06T09:16:19;7.15;;;1.08;;
74519;SDS011;63002;48.134;-1.948;2023-08-06T09:18:45;16.38;;;1.40;;
74519;SDS011;63002;48.134;-1.948;2023-08-06T09:21:15;6.45;;;1.52;;
74519;SDS011;63002;48.134;-1.948;2023-08-06T09:23:41;7.50;;;1.60;;
74519;SDS011;63002;48.134;-1.948;2023-08-06T09:26:07;4.37;;;1.00;;
74519;SDS011;63002;48.134;-1.948;2023-08-06T09:28:37;5.78;;;1.10;;
74519;SDS011;63002;48.134;-1.948;2023-08-06T09:31:04;5.55;;;1.20;;
74519;SDS011;63002;48.134;-1.948;2023-08-06T09:33:30;6.32;;;1.20;;
74519;SDS011;63002;48.134;-1.948;2023-08-06T09:35:56;8.00;;;1.00;;
74519;SDS011;63002;48.134;-1.948;2023-08-06T09:38:22;8.25;;;1.05;;
74519;SDS011;63002;48.134;-1.948;2023-08-06T09:40:47;9.17;;;1.50;;
74519;SDS011;63002;48.134;-1.948;2023-08-06T09:43:13;8.45;;;1.35;;
74519;SDS011;63002;48.134;-1.948;2023-08-06T09:45:39;7.10;;;0.90;;
74519;SDS011;63002;48.134;-1.948;2023-08-06T09:48:05;8.07;;;1.20;;
74519;SDS011;63002;48.134;-1.948;2023-08-06T09:50:33;6.20;;;1.20;;
74519;SDS011;63002;48.134;-1.948;2023-08-06T09:53:01;7.90;;;1.27;;
74519;SDS011;63002;48.134;-1.948;2023-08-06T09:55:28;10.55;;;1.55;;
74519;SDS011;63002;48.134;-1.948;2023-08-06T09:57:54;7.47;;;1.60;;
74519;SDS011;63002;48.134;-1.948;2023-08-06T10:00:20;4.90;;;0.98;;
74519;SDS011;63002;48.134;-1.948;2023-08-06T10:02:48;6.32;;;1.15;;
74519;SDS011;63002;48.134;-1.948;2023-08-06T10:05:16;7.85;;;0.93;;
74519;SDS011;63002;48.134;-1.948;2023-08-06T10:07:43;7.55;;;1.08;;
74519;SDS011;63002;48.134;-1.948;2023-08-06T10:10:10;5.93;;;1.00;;
74519;SDS011;63002;48.134;-1.948;2023-08-06T10:12:40;7.10;;;0.90;;
74519;SDS011;63002;48.134;-1.948;2023-08-06T10:15:14;11.57;;;1.35;;
74519;SDS011;63002;48.134;-1.948;2023-08-06T10:17:42;7.90;;;1.10;;
74519;SDS011;63002;48.134;-1.948;2023-08-06T10:20:10;7.63;;;1.02;;
74519;SDS011;63002;48.134;-1.948;2023-08-06T10:22:37;4.90;;;0.95;;
74519;SDS011;63002;48.134;-1.948;2023-08-06T10:25:09;5.68;;;0.88;;
74519;SDS011;63002;48.134;-1.948;2023-08-06T10:27:35;4.72;;;0.85;;
74519;SDS011;63002;48.134;-1.948;2023-08-06T10:33:00;6.88;;;1.20;;
74519;SDS011;63002;48.134;-1.948;2023-08-06T10:35:29;4.73;;;0.80;;
74519;SDS011;63002;48.134;-1.948;2023-08-06T10:38:12;7.32;;;1.08;;
74519;SDS011;63002;48.134;-1.948;2023-08-06T10:41:01;11.63;;;1.00;;
74519;SDS011;63002;48.134;-1.948;2023-08-06T10:43:28;7.05;;;1.15;;
74519;SDS011;63002;48.134;-1.948;2023-08-06T10:45:54;9.07;;;1.55;;
74519;SDS011;63002;48.134;-1.948;2023-08-06T10:48:31;5.23;;;0.97;;
74519;SDS011;63002;48.134;-1.948;2023-08-06T10:51:00;8.60;;;1.60;;
74519;SDS011;63002;48.134;-1.948;2023-08-06T10:53:26;6.10;;;1.40;;
74519;SDS011;63002;48.134;-1.948;2023-08-06T10:55:52;7.15;;;1.10;;
74519;SDS011;63002;48.134;-1.948;2023-08-06T10:58:18;8.00;;;1.37;;
74519;SDS011;63002;48.134;-1.948;2023-08-06T11:00:43;7.95;;;1.10;;
74519;SDS011;63002;48.134;-1.948;2023-08-06T11:03:10;5.93;;;1.40;;
74519;SDS011;63002;48.134;-1.948;2023-08-06T11:05:36;5.05;;;0.85;;
74519;SDS011;63002;48.134;-1.948;2023-08-06T11:08:02;3.40;;;0.70;;
74519;SDS011;63002;48.134;-1.948;2023-08-06T11:10:28;5.13;;;1.00;;
74519;SDS011;63002;48.134;-1.948;2023-08-06T11:12:53;5.32;;;1.00;;
74519;SDS011;63002;48.134;-1.948;2023-08-06T11:15:22;7.23;;;1.27;;
74519;SDS011;63002;48.134;-1.948;2023-08-06T11:17:49;4.28;;;1.05;;
74519;SDS011;63002;48.134;-1.948;2023-08-06T11:20:15;5.70;;;1.08;;
74519;SDS011;63002;48.134;-1.948;2023-08-06T11:22:42;3.92;;;0.80;;
74519;SDS011;63002;48.134;-1.948;2023-08-06T11:25:08;2.77;;;0.60;;
74519;SDS011;63002;48.134;-1.948;2023-08-06T11:27:34;5.15;;;0.85;;
74519;SDS011;63002;48.134;-1.948;2023-08-06T11:29:59;4.87;;;0.90;;
74519;SDS011;63002;48.134;-1.948;2023-08-06T11:32:25;4.97;;;0.68;;
74519;SDS011;63002;48.134;-1.948;2023-08-06T11:34:52;3.83;;;0.90;;
74519;SDS011;63002;48.134;-1.948;2023-08-06T11:37:23;4.43;;;0.77;;
74519;SDS011;63002;48.134;-1.948;2023-08-06T11:39:50;7.25;;;0.90;;
74519;SDS011;63002;48.134;-1.948;2023-08-06T11:42:16;5.90;;;0.90;;
74519;SDS011;63002;48.134;-1.948;2023-08-06T11:44:42;4.82;;;0.80;;
74519;SDS011;63002;48.134;-1.948;2023-08-06T11:47:12;6.30;;;0.87;;
74519;SDS011;63002;48.134;-1.948;2023-08-06T11:52:13;4.32;;;1.00;;
74519;SDS011;63002;48.134;-1.948;2023-08-06T11:54:40;3.50;;;0.70;;
74519;SDS011;63002;48.134;-1.948;2023-08-06T11:57:09;4.72;;;0.95;;
74519;SDS011;63002;48.134;-1.948;2023-08-06T11:59:36;6.63;;;0.70;;
74519;SDS011;63002;48.134;-1.948;2023-08-06T12:02:04;4.10;;;0.68;;
74519;SDS011;63002;48.134;-1.948;2023-08-06T12:05:19;7.03;;;1.10;;
74519;SDS011;63002;48.134;-1.948;2023-08-06T12:07:29;7.82;;;0.70;;
74519;SDS011;63002;48.134;-1.948;2023-08-06T12:10:00;6.47;;;0.73;;
74519;SDS011;63002;48.134;-1.948;2023-08-06T12:12:26;6.50;;;1.00;;
74519;SDS011;63002;48.134;-1.948;2023-08-06T12:14:52;4.50;;;0.82;;
74519;SDS011;63002;48.134;-1.948;2023-08-06T12:17:17;6.07;;;0.73;;
74519;SDS011;63002;48.134;-1.948;2023-08-06T12:19:44;5.03;;;0.90;;
74519;SDS011;63002;48.134;-1.948;2023-08-06T12:22:13;3.25;;;0.77;;
74519;SDS011;63002;48.134;-1.948;2023-08-06T12:24:41;6.85;;;0.95;;
74519;SDS011;63002;48.134;-1.948;2023-08-06T12:27:10;4.57;;;0.82;;
74519;SDS011;63002;48.134;-1.948;2023-08-06T12:29:41;4.50;;;0.98;;
74519;SDS011;63002;48.134;-1.948;2023-08-06T12:32:09;6.15;;;1.13;;
74519;SDS011;63002;48.134;-1.948;2023-08-06T12:34:38;4.28;;;1.00;;
74519;SDS011;63002;48.134;-1.948;2023-08-06T12:37:04;6.85;;;1.05;;
74519;SDS011;63002;48.134;-1.948;2023-08-06T12:39:30;7.07;;;1.27;;
74519;SDS011;63002;48.134;-1.948;2023-08-06T12:41:57;7.15;;;1.00;;
74519;SDS011;63002;48.134;-1.948;2023-08-06T12:44:24;6.47;;;1.13;;
74519;SDS011;63002;48.134;-1.948;2023-08-06T12:46:50;3.73;;;0.70;;
74519;SDS011;63002;48.134;-1.948;2023-08-06T12:49:17;7.10;;;0.85;;
74519;SDS011;63002;48.134;-1.948;2023-08-06T12:51:43;8.63;;;0.98;;
74519;SDS011;63002;48.134;-1.948;2023-08-06T12:54:09;13.03;;;1.50;;
74519;SDS011;63002;48.134;-1.948;2023-08-06T12:56:34;10.60;;;0.90;;
74519;SDS011;63002;48.134;-1.948;2023-08-06T12:59:00;15.48;;;0.93;;
74519;SDS011;63002;48.134;-1.948;2023-08-06T13:01:27;9.68;;;1.02;;
74519;SDS011;63002;48.134;-1.948;2023-08-06T13:03:52;5.93;;;0.70;;
74519;SDS011;63002;48.134;-1.948;2023-08-06T13:06:18;9.50;;;0.95;;
74519;SDS011;63002;48.134;-1.948;2023-08-06T13:08:44;6.72;;;0.90;;
74519;SDS011;63002;48.134;-1.948;2023-08-06T13:11:10;7.80;;;0.97;;
74519;SDS011;63002;48.134;-1.948;2023-08-06T13:13:37;5.32;;;1.13;;
74519;SDS011;63002;48.134;-1.948;2023-08-06T13:16:03;4.07;;;0.60;;
74519;SDS011;63002;48.134;-1.948;2023-08-06T13:18:29;8.73;;;0.93;;
74519;SDS011;63002;48.134;-1.948;2023-08-06T13:20:56;5.13;;;0.80;;
74519;SDS011;63002;48.134;-1.948;2023-08-06T13:23:22;5.88;;;0.90;;
74519;SDS011;63002;48.134;-1.948;2023-08-06T13:25:47;6.55;;;1.13;;
74519;SDS011;63002;48.134;-1.948;2023-08-06T13:28:13;5.10;;;0.70;;
74519;SDS011;63002;48.134;-1.948;2023-08-06T13:30:39;7.50;;;1.02;;
74519;SDS011;63002;48.134;-1.948;2023-08-06T13:33:10;4.07;;;1.00;;
74519;SDS011;63002;48.134;-1.948;2023-08-06T13:35:36;6.15;;;0.98;;
74519;SDS011;63002;48.134;-1.948;2023-08-06T13:38:02;4.40;;;1.10;;
74519;SDS011;63002;48.134;-1.948;2023-08-06T13:40:29;6.35;;;1.33;;
74519;SDS011;63002;48.134;-1.948;2023-08-06T13:42:55;4.75;;;0.95;;
74519;SDS011;63002;48.134;-1.948;2023-08-06T13:45:21;4.77;;;0.93;;
74519;SDS011;63002;48.134;-1.948;2023-08-06T13:47:47;5.20;;;0.70;;
74519;SDS011;63002;48.134;-1.948;2023-08-06T13:50:13;10.48;;;0.70;;
74519;SDS011;63002;48.134;-1.948;2023-08-06T13:52:39;5.63;;;1.03;;
74519;SDS011;63002;48.134;-1.948;2023-08-06T13:55:06;4.50;;;0.90;;
74519;SDS011;63002;48.134;-1.948;2023-08-06T13:57:33;4.95;;;0.90;;
74519;SDS011;63002;48.134;-1.948;2023-08-06T13:59:59;7.40;;;0.80;;
74519;SDS011;63002;48.134;-1.948;2023-08-06T14:02:25;7.43;;;1.00;;
74519;SDS011;63002;48.134;-1.948;2023-08-06T14:04:54;5.30;;;1.00;;
74519;SDS011;63002;48.134;-1.948;2023-08-06T14:07:20;5.97;;;1.00;;
74519;SDS011;63002;48.134;-1.948;2023-08-06T14:09:46;5.45;;;0.93;;
74519;SDS011;63002;48.134;-1.948;2023-08-06T14:12:12;6.87;;;1.30;;
74519;SDS011;63002;48.134;-1.948;2023-08-06T14:14:39;8.77;;;1.15;;
74519;SDS011;63002;48.134;-1.948;2023-08-06T14:17:05;6.80;;;1.00;;
74519;SDS011;63002;48.134;-1.948;2023-08-06T14:19:30;4.20;;;0.70;;
74519;SDS011;63002;48.134;-1.948;2023-08-06T14:21:56;6.05;;;0.80;;
74519;SDS011;63002;48.134;-1.948;2023-08-06T14:24:26;6.85;;;1.10;;
74519;SDS011;63002;48.134;-1.948;2023-08-06T14:26:52;6.63;;;0.93;;
74519;SDS011;63002;48.134;-1.948;2023-08-06T14:29:18;4.95;;;1.00;;
74519;SDS011;63002;48.134;-1.948;2023-08-06T14:31:43;6.63;;;0.80;;
74519;SDS011;63002;48.134;-1.948;2023-08-06T14:34:09;5.57;;;0.77;;
74519;SDS011;63002;48.134;-1.948;2023-08-06T14:36:35;6.75;;;1.00;;
74519;SDS011;63002;48.134;-1.948;2023-08-06T14:39:00;4.57;;;1.20;;
74519;SDS011;63002;48.134;-1.948;2023-08-06T14:41:26;5.55;;;0.90;;
74519;SDS011;63002;48.134;-1.948;2023-08-06T14:43:52;3.70;;;0.90;;
74519;SDS011;63002;48.134;-1.948;2023-08-06T14:46:19;6.03;;;0.82;;
74519;SDS011;63002;48.134;-1.948;2023-08-06T14:48:46;7.05;;;1.00;;
74519;SDS011;63002;48.134;-1.948;2023-08-06T14:51:13;5.13;;;0.90;;
74519;SDS011;63002;48.134;-1.948;2023-08-06T14:53:41;6.03;;;0.73;;
74519;SDS011;63002;48.134;-1.948;2023-08-06T14:56:08;5.60;;;1.08;;
74519;SDS011;63002;48.134;-1.948;2023-08-06T14:58:34;3.83;;;0.70;;
74519;SDS011;63002;48.134;-1.948;2023-08-06T15:01:00;3.57;;;0.83;;
74519;SDS011;63002;48.134;-1.948;2023-08-06T15:03:26;4.53;;;1.02;;
74519;SDS011;63002;48.134;-1.948;2023-08-06T15:05:53;4.00;;;1.00;;
74519;SDS011;63002;48.134;-1.948;2023-08-06T15:08:19;4.23;;;0.93;;
74519;SDS011;63002;48.134;-1.948;2023-08-06T15:10:53;9.93;;;1.08;;
74519;SDS011;63002;48.134;-1.948;2023-08-06T15:13:19;4.53;;;0.90;;
74519;SDS011;63002;48.134;-1.948;2023-08-06T15:15:48;4.67;;;1.10;;
74519;SDS011;63002;48.134;-1.948;2023-08-06T15:18:14;6.18;;;0.90;;
74519;SDS011;63002;48.134;-1.948;2023-08-06T15:20:40;4.03;;;1.02;;
74519;SDS011;63002;48.134;-1.948;2023-08-06T15:23:06;5.43;;;0.80;;
74519;SDS011;63002;48.134;-1.948;2023-08-06T15:25:35;4.60;;;0.77;;
74519;SDS011;63002;48.134;-1.948;2023-08-06T15:28:01;4.53;;;0.80;;
74519;SDS011;63002;48.134;-1.948;2023-08-06T15:30:27;4.40;;;0.90;;
74519;SDS011;63002;48.134;-1.948;2023-08-06T15:32:53;6.20;;;1.00;;
74519;SDS011;63002;48.134;-1.948;2023-08-06T15:35:21;5.77;;;1.00;;
74519;SDS011;63002;48.134;-1.948;2023-08-06T15:37:46;3.42;;;0.80;;
74519;SDS011;63002;48.134;-1.948;2023-08-06T15:40:12;5.07;;;0.80;;
74519;SDS011;63002;48.134;-1.948;2023-08-06T15:42:38;3.25;;;0.60;;
74519;SDS011;63002;48.134;-1.948;2023-08-06T15:45:04;4.32;;;1.00;;
74519;SDS011;63002;48.134;-1.948;2023-08-06T15:47:30;4.07;;;0.80;;
74519;SDS011;63002;48.134;-1.948;2023-08-06T15:49:56;3.83;;;0.97;;
74519;SDS011;63002;48.134;-1.948;2023-08-06T15:52:22;4.22;;;0.70;;
74519;SDS011;63002;48.134;-1.948;2023-08-06T15:54:48;4.45;;;0.98;;
74519;SDS011;63002;48.134;-1.948;2023-08-06T15:57:14;5.67;;;1.10;;
74519;SDS011;63002;48.134;-1.948;2023-08-06T15:59:43;3.65;;;0.95;;
74519;SDS011;63002;48.134;-1.948;2023-08-06T16:02:09;8.02;;;1.00;;
74519;SDS011;63002;48.134;-1.948;2023-08-06T16:04:36;4.20;;;0.70;;
74519;SDS011;63002;48.134;-1.948;2023-08-06T16:07:01;4.35;;;0.77;;
74519;SDS011;63002;48.134;-1.948;2023-08-06T16:09:27;3.70;;;0.82;;
74519;SDS011;63002;48.134;-1.948;2023-08-06T16:11:53;3.58;;;0.75;;
74519;SDS011;63002;48.134;-1.948;2023-08-06T16:14:19;4.43;;;0.93;;
74519;SDS011;63002;48.134;-1.948;2023-08-06T16:16:46;3.67;;;1.08;;
74519;SDS011;63002;48.134;-1.948;2023-08-06T16:19:12;3.65;;;0.80;;
74519;SDS011;63002;48.134;-1.948;2023-08-06T16:21:37;2.58;;;0.57;;
74519;SDS011;63002;48.134;-1.948;2023-08-06T16:24:03;2.60;;;0.43;;
74519;SDS011;63002;48.134;-1.948;2023-08-06T16:26:32;4.18;;;0.90;;
74519;SDS011;63002;48.134;-1.948;2023-08-06T16:28:58;4.80;;;0.90;;
74519;SDS011;63002;48.134;-1.948;2023-08-06T16:31:24;4.23;;;0.93;;
74519;SDS011;63002;48.134;-1.948;2023-08-06T16:33:50;4.13;;;0.90;;
74519;SDS011;63002;48.134;-1.948;2023-08-06T16:36:16;3.60;;;0.60;;
74519;SDS011;63002;48.134;-1.948;2023-08-06T16:38:42;4.97;;;0.70;;
74519;SDS011;63002;48.134;-1.948;2023-08-06T16:41:08;5.25;;;0.90;;
74519;SDS011;63002;48.134;-1.948;2023-08-06T16:43:36;3.83;;;1.02;;
74519;SDS011;63002;48.134;-1.948;2023-08-06T16:46:02;5.32;;;1.20;;
74519;SDS011;63002;48.134;-1.948;2023-08-06T16:48:28;4.40;;;0.98;;
74519;SDS011;63002;48.134;-1.948;2023-08-06T16:51:00;3.55;;;1.10;;
74519;SDS011;63002;48.134;-1.948;2023-08-06T16:53:26;4.88;;;1.00;;
74519;SDS011;63002;48.134;-1.948;2023-08-06T16:55:52;5.72;;;1.02;;
74519;SDS011;63002;48.134;-1.948;2023-08-06T16:58:19;3.70;;;0.90;;
74519;SDS011;63002;48.134;-1.948;2023-08-06T17:00:46;4.60;;;0.90;;
74519;SDS011;63002;48.134;-1.948;2023-08-06T17:03:13;5.13;;;0.80;;
74519;SDS011;63002;48.134;-1.948;2023-08-06T17:05:40;4.03;;;0.82;;
74519;SDS011;63002;48.134;-1.948;2023-08-06T17:08:06;4.93;;;1.10;;
74519;SDS011;63002;48.134;-1.948;2023-08-06T17:10:33;4.20;;;1.00;;
74519;SDS011;63002;48.134;-1.948;2023-08-06T17:13:04;4.95;;;1.00;;
74519;SDS011;63002;48.134;-1.948;2023-08-06T17:15:30;4.43;;;0.73;;
74519;SDS011;63002;48.134;-1.948;2023-08-06T17:17:59;6.07;;;1.58;;
74519;SDS011;63002;48.134;-1.948;2023-08-06T17:20:25;5.20;;;1.10;;
74519;SDS011;63002;48.134;-1.948;2023-08-06T17:22:51;6.22;;;1.15;;
74519;SDS011;63002;48.134;-1.948;2023-08-06T17:25:19;4.38;;;0.90;;
74519;SDS011;63002;48.134;-1.948;2023-08-06T17:27:47;4.25;;;1.05;;
74519;SDS011;63002;48.134;-1.948;2023-08-06T17:30:14;6.22;;;1.30;;
74519;SDS011;63002;48.134;-1.948;2023-08-06T17:32:40;5.97;;;1.13;;
74519;SDS011;63002;48.134;-1.948;2023-08-06T17:35:06;4.60;;;1.00;;
74519;SDS011;63002;48.134;-1.948;2023-08-06T17:37:32;5.80;;;1.00;;
74519;SDS011;63002;48.134;-1.948;2023-08-06T17:39:58;4.90;;;1.10;;
74519;SDS011;63002;48.134;-1.948;2023-08-06T17:42:27;6.00;;;0.90;;
74519;SDS011;63002;48.134;-1.948;2023-08-06T17:44:54;7.22;;;1.02;;
74519;SDS011;63002;48.134;-1.948;2023-08-06T17:47:20;6.10;;;0.93;;
74519;SDS011;63002;48.134;-1.948;2023-08-06T17:49:46;4.90;;;1.10;;
74519;SDS011;63002;48.134;-1.948;2023-08-06T17:52:11;3.33;;;1.10;;
74519;SDS011;63002;48.134;-1.948;2023-08-06T17:54:37;5.75;;;1.00;;
74519;SDS011;63002;48.134;-1.948;2023-08-06T17:57:03;3.90;;;0.70;;
74519;SDS011;63002;48.134;-1.948;2023-08-06T17:59:29;6.43;;;1.00;;
74519;SDS011;63002;48.134;-1.948;2023-08-06T18:01:55;5.00;;;1.20;;
74519;SDS011;63002;48.134;-1.948;2023-08-06T18:04:22;4.83;;;1.10;;
74519;SDS011;63002;48.134;-1.948;2023-08-06T18:06:48;10.82;;;1.10;;
74519;SDS011;63002;48.134;-1.948;2023-08-06T18:09:14;7.37;;;1.57;;
74519;SDS011;63002;48.134;-1.948;2023-08-06T18:11:40;5.57;;;1.13;;
74519;SDS011;63002;48.134;-1.948;2023-08-06T18:14:07;9.52;;;1.38;;
74519;SDS011;63002;48.134;-1.948;2023-08-06T18:16:33;7.57;;;1.40;;
74519;SDS011;63002;48.134;-1.948;2023-08-06T18:18:58;6.90;;;1.15;;
74519;SDS011;63002;48.134;-1.948;2023-08-06T18:21:25;7.30;;;1.33;;
74519;SDS011;63002;48.134;-1.948;2023-08-06T18:23:55;7.65;;;1.50;;
74519;SDS011;63002;48.134;-1.948;2023-08-06T18:26:26;4.63;;;1.00;;
74519;SDS011;63002;48.134;-1.948;2023-08-06T18:29:00;7.97;;;1.58;;
74519;SDS011;63002;48.134;-1.948;2023-08-06T18:31:26;4.30;;;0.90;;
74519;SDS011;63002;48.134;-1.948;2023-08-06T18:33:52;5.60;;;0.88;;
74519;SDS011;63002;48.134;-1.948;2023-08-06T18:36:18;4.68;;;1.10;;
74519;SDS011;63002;48.134;-1.948;2023-08-06T18:38:44;5.87;;;0.83;;
74519;SDS011;63002;48.134;-1.948;2023-08-06T18:41:14;5.25;;;0.77;;
74519;SDS011;63002;48.134;-1.948;2023-08-06T18:43:40;4.28;;;0.95;;
74519;SDS011;63002;48.134;-1.948;2023-08-06T18:46:06;6.10;;;1.07;;
74519;SDS011;63002;48.134;-1.948;2023-08-06T18:48:32;4.80;;;0.80;;
74519;SDS011;63002;48.134;-1.948;2023-08-06T18:50:58;4.93;;;1.35;;
74519;SDS011;63002;48.134;-1.948;2023-08-06T18:53:24;5.53;;;1.10;;
74519;SDS011;63002;48.134;-1.948;2023-08-06T18:55:50;6.60;;;1.40;;
74519;SDS011;63002;48.134;-1.948;2023-08-06T18:58:17;5.28;;;1.00;;
74519;SDS011;63002;48.134;-1.948;2023-08-06T19:00:44;5.30;;;0.93;;
74519;SDS011;63002;48.134;-1.948;2023-08-06T19:03:15;5.35;;;0.90;;
74519;SDS011;63002;48.134;-1.948;2023-08-06T19:05:42;4.97;;;0.88;;
74519;SDS011;63002;48.134;-1.948;2023-08-06T19:08:08;6.97;;;0.90;;
74519;SDS011;63002;48.134;-1.948;2023-08-06T19:10:36;4.85;;;1.00;;
74519;SDS011;63002;48.134;-1.948;2023-08-06T19:13:10;4.32;;;1.10;;
74519;SDS011;63002;48.134;-1.948;2023-08-06T19:15:36;4.82;;;0.95;;
74519;SDS011;63002;48.134;-1.948;2023-08-06T19:18:03;5.20;;;1.42;;
74519;SDS011;63002;48.134;-1.948;2023-08-06T19:20:30;4.20;;;0.80;;
74519;SDS011;63002;48.134;-1.948;2023-08-06T19:22:56;5.10;;;0.98;;
74519;SDS011;63002;48.134;-1.948;2023-08-06T19:25:22;5.47;;;1.23;;
74519;SDS011;63002;48.134;-1.948;2023-08-06T19:27:48;5.80;;;0.80;;
74519;SDS011;63002;48.134;-1.948;2023-08-06T19:30:14;5.07;;;1.10;;
74519;SDS011;63002;48.134;-1.948;2023-08-06T19:32:40;5.38;;;1.08;;
74519;SDS011;63002;48.134;-1.948;2023-08-06T19:35:07;3.33;;;0.80;;
74519;SDS011;63002;48.134;-1.948;2023-08-06T19:37:40;4.65;;;0.77;;